Time;durP1;ratioP1;P1;durP2;ratioP2;P2;SDS_P1;SDS_P2;PMS_P1;PMS_P2;Temp;Humidity;BMP_temperature;BMP_pressure;BME280_temperature;BME280_humidity;BME280_pressure;Samples;Min_cycle;Max_cycle;Signal;HPM_P1;HPM_P2
2023/05/29 04:01:09;;;;;;;0.45;0.45;;;10.80;99.90;;;;;;5621966;23;20287;-73
2023/05/29 04:03:36;;;;;;;1.00;1.00;;;10.80;99.90;;;;;;4969422;28;20454;-73
2023/05/29 04:06:02;;;;;;;0.52;0.52;;;10.80;99.90;;;;;;4971043;28;20213;-73
2023/05/29 04:08:29;;;;;;;1.55;1.38;;;10.80;99.90;;;;;;4971823;28;20295;-73
2023/05/29 04:10:56;;;;;;;1.58;1.40;;;10.90;99.90;;;;;;4971092;28;20568;-73
2023/05/29 04:13:22;;;;;;;3.80;1.08;;;10.90;99.90;;;;;;4971515;28;20208;-73
2023/05/29 04:15:52;;;;;;;6.47;1.05;;;11.00;99.90;;;;;;4972156;28;20209;-73
2023/05/29 04:18:20;;;;;;;4.35;0.63;;;11.10;99.90;;;;;;4964303;28;20576;-73
2023/05/29 04:20:47;;;;;;;0.45;0.45;;;11.20;99.90;;;;;;4952863;28;20233;-73
2023/05/29 04:23:13;;;;;;;0.73;0.73;;;11.30;99.90;;;;;;4949814;28;20205;-73
2023/05/29 04:25:40;;;;;;;0.68;0.68;;;11.50;99.90;;;;;;4952313;29;20205;-73
2023/05/29 04:28:07;;;;;;;0.47;0.47;;;11.90;99.90;;;;;;4953226;29;20209;-73
2023/05/29 04:30:34;;;;;;;0.53;0.53;;;12.40;99.90;;;;;;4952954;29;20221;-73
2023/05/29 04:33:00;;;;;;;3.60;0.70;;;12.80;99.90;;;;;;4952902;29;20476;-74
2023/05/29 04:35:29;;;;;;;0.87;0.83;;;13.10;99.90;;;;;;4951582;28;20472;-74
2023/05/29 04:37:56;;;;;;;1.47;0.50;;;13.40;99.90;;;;;;4952013;28;20465;-73
2023/05/29 04:40:23;;;;;;;2.33;0.77;;;13.80;99.90;;;;;;4952080;28;20496;-74
2023/05/29 04:42:50;;;;;;;0.60;0.60;;;14.30;99.90;;;;;;4952784;28;20472;-73
2023/05/29 04:45:19;;;;;;;4.90;0.60;;;14.40;99.90;;;;;;4952205;28;20576;-73
2023/05/29 04:47:46;;;;;;;3.90;0.60;;;14.70;99.90;;;;;;4952616;28;20902;-73
2023/05/29 04:50:13;;;;;;;0.63;0.50;;;15.00;99.90;;;;;;4952495;28;20602;-72
2023/05/29 04:52:42;;;;;;;1.10;0.83;;;14.90;99.90;;;;;;4952027;28;20958;-72
2023/05/29 04:55:10;;;;;;;4.43;0.63;;;14.90;99.90;;;;;;4951696;28;20906;-73
2023/05/29 04:57:36;;;;;;;1.37;0.50;;;15.10;99.90;;;;;;4952485;28;20866;-73
2023/05/29 05:00:06;;;;;;;5.43;0.93;;;15.20;99.90;;;;;;4952521;28;20509;-73
2023/05/29 05:02:33;;;;;;;2.27;0.87;;;15.10;99.90;;;;;;4952155;28;20528;-73
2023/05/29 05:05:00;;;;;;;5.60;1.17;;;14.80;99.90;;;;;;4951995;28;20468;-72
2023/05/29 05:07:26;;;;;;;1.90;1.20;;;14.90;99.90;;;;;;4952359;28;20553;-73
2023/05/29 05:09:54;;;;;;;4.27;0.87;;;15.00;99.90;;;;;;4951973;28;20467;-73
2023/05/29 05:12:21;;;;;;;5.70;1.20;;;15.20;99.90;;;;;;4952344;28;20492;-72
2023/05/29 05:14:48;;;;;;;2.77;0.70;;;15.30;99.90;;;;;;4951792;28;20886;-73
2023/05/29 05:17:14;;;;;;;0.80;0.80;;;15.30;99.90;;;;;;4955310;28;20961;-73
2023/05/29 05:19:41;;;;;;;2.37;1.60;;;15.40;99.90;;;;;;4956017;28;20460;-72
2023/05/29 05:22:07;;;;;;;3.00;0.83;;;15.60;99.90;;;;;;4956135;28;20491;-74
2023/05/29 05:24:34;;;;;;;1.90;0.53;;;15.80;99.90;;;;;;4955328;28;20501;-74
2023/05/29 05:27:05;;;;;;;2.00;0.70;;;16.00;99.90;;;;;;4955996;29;20464;-74
2023/05/29 05:29:32;;;;;;;0.97;0.73;;;16.10;99.90;;;;;;4955906;28;20464;-74
2023/05/29 05:31:58;;;;;;;0.50;0.37;;;16.30;99.90;;;;;;4955860;28;20484;-74
2023/05/29 05:34:25;;;;;;;2.37;0.80;;;16.30;99.90;;;;;;4955498;29;20862;-73
2023/05/29 05:36:52;;;;;;;1.07;1.00;;;16.50;99.90;;;;;;4955825;29;20543;-73
2023/05/29 05:39:19;;;;;;;0.87;0.60;;;16.40;99.90;;;;;;4954725;29;20523;-73
2023/05/29 05:41:45;;;;;;;3.27;0.63;;;16.20;99.90;;;;;;4955421;28;20492;-73
2023/05/29 05:44:13;;;;;;;1.40;0.53;;;16.10;99.90;;;;;;4954720;28;20479;-73
2023/05/29 05:46:40;;;;;;;3.70;0.97;;;15.90;99.90;;;;;;4955850;29;20869;-73
2023/05/29 05:49:06;;;;;;;1.90;0.90;;;15.80;99.90;;;;;;4955224;28;20885;-73
2023/05/29 05:51:33;;;;;;;5.53;1.17;;;15.60;99.90;;;;;;4955128;29;21001;-73
2023/05/29 05:54:00;;;;;;;1.33;0.50;;;15.80;99.90;;;;;;4954545;29;20901;-73
2023/05/29 05:56:26;;;;;;;0.60;0.40;;;15.90;99.90;;;;;;4955240;29;20465;-73
2023/05/29 05:58:53;;;;;;;4.37;0.70;;;16.10;99.90;;;;;;4954990;29;20464;-74
2023/05/29 06:01:22;;;;;;;1.03;0.53;;;16.40;99.90;;;;;;4955150;29;20610;-74
2023/05/29 06:03:49;;;;;;;1.27;1.27;;;16.70;99.90;;;;;;4954403;29;20468;-74
2023/05/29 06:06:16;;;;;;;2.00;0.90;;;16.90;99.90;;;;;;4955255;29;20498;-73
2023/05/29 06:08:44;;;;;;;2.07;1.30;;;17.20;99.90;;;;;;4955595;28;20475;-74
2023/05/29 06:11:11;;;;;;;0.87;0.87;;;17.00;99.90;;;;;;4955980;28;20927;-74
2023/05/29 06:13:38;;;;;;;3.80;0.90;;;17.10;99.90;;;;;;4956529;29;20470;-74
2023/05/29 06:16:05;;;;;;;0.73;0.53;;;17.20;99.90;;;;;;4956672;29;20469;-73
2023/05/29 06:18:33;;;;;;;0.50;0.50;;;17.40;99.90;;;;;;4959707;28;20493;-73
2023/05/29 06:21:00;;;;;;;3.77;0.70;;;17.50;99.90;;;;;;4957537;28;20490;-72
2023/05/29 06:23:27;;;;;;;0.83;0.73;;;17.50;99.90;;;;;;4956788;28;20467;-73
2023/05/29 06:25:54;;;;;;;0.43;0.43;;;17.60;99.90;;;;;;4956935;29;20548;-74
2023/05/29 06:28:20;;;;;;;1.43;0.87;;;18.30;99.90;;;;;;4956255;28;20472;-73
2023/05/29 06:30:47;;;;;;;0.70;0.70;;;18.40;99.90;;;;;;4955502;29;20490;-74
2023/05/29 06:33:14;;;;;;;0.50;0.50;;;18.80;99.90;;;;;;4954779;29;20471;-74
2023/05/29 06:35:42;;;;;;;2.10;0.57;;;19.40;99.90;;;;;;4954788;29;20832;-74
2023/05/29 06:38:09;;;;;;;0.77;0.77;;;19.90;99.90;;;;;;4954274;29;20479;-74
2023/05/29 06:40:36;;;;;;;1.23;0.83;;;20.40;99.90;;;;;;4954493;29;20829;-74
2023/05/29 06:43:02;;;;;;;0.67;0.53;;;20.60;99.90;;;;;;4954548;29;20479;-74
2023/05/29 06:45:29;;;;;;;0.50;0.50;;;20.60;99.30;;;;;;4953828;29;20497;-73
2023/05/29 06:47:56;;;;;;;1.23;0.60;;;20.70;98.90;;;;;;4954634;29;20829;-74
2023/05/29 06:50:23;;;;;;;0.33;0.33;;;20.50;98.70;;;;;;4954201;29;20908;-73
2023/05/29 06:52:51;;;;;;;0.83;0.50;;;20.30;98.20;;;;;;4954019;29;20479;-73
2023/05/29 06:55:17;;;;;;;0.67;0.67;;;20.40;98.70;;;;;;4953607;29;20467;-73
2023/05/29 06:57:44;;;;;;;0.50;0.50;;;20.30;98.00;;;;;;4953890;29;20952;-73
2023/05/29 07:00:12;;;;;;;0.87;0.57;;;20.10;98.10;;;;;;4954105;29;20941;-72
2023/05/29 07:02:39;;;;;;;1.30;0.70;;;20.10;97.90;;;;;;4954182;28;20464;-73
2023/05/29 07:05:06;;;;;;;1.63;0.63;;;20.20;98.00;;;;;;4953435;29;20468;-73
2023/05/29 07:07:33;;;;;;;4.17;0.83;;;20.20;97.80;;;;;;4953753;29;20465;-73
2023/05/29 07:10:01;;;;;;;0.80;0.60;;;20.00;97.60;;;;;;4953549;29;20522;-73
2023/05/29 07:12:27;;;;;;;1.60;0.90;;;19.80;98.50;;;;;;4953963;29;20484;-72
2023/05/29 07:14:54;;;;;;;3.63;1.07;;;19.90;98.30;;;;;;4953380;29;20471;-73
2023/05/29 07:17:21;;;;;;;4.70;1.17;;;20.20;98.40;;;;;;4953657;29;20484;-73
2023/05/29 07:19:49;;;;;;;0.53;0.50;;;20.60;97.90;;;;;;4953602;29;20479;-73
2023/05/29 07:22:15;;;;;;;0.93;0.70;;;20.50;98.10;;;;;;4953870;29;20913;-72
2023/05/29 07:24:42;;;;;;;0.53;0.40;;;20.50;97.20;;;;;;4952269;29;20471;-73
2023/05/29 07:27:10;;;;;;;0.93;0.50;;;20.60;97.00;;;;;;4953913;28;20474;-73
2023/05/29 07:29:37;;;;;;;3.57;1.20;;;20.50;96.30;;;;;;4953967;29;20520;-74
2023/05/29 07:32:03;;;;;;;1.80;0.73;;;20.60;96.40;;;;;;4953523;29;20874;-72
2023/05/29 07:34:30;;;;;;;0.50;0.50;;;20.50;96.00;;;;;;4953014;29;20465;-73
2023/05/29 07:36:59;;;;;;;4.97;1.10;;;20.30;96.10;;;;;;4953328;28;20461;-73
2023/05/29 07:39:26;;;;;;;5.30;0.97;;;20.30;96.70;;;;;;4952443;28;20953;-73
2023/05/29 07:41:53;;;;;;;0.60;0.60;;;20.80;96.60;;;;;;4953388;29;20503;-73
2023/05/29 07:44:21;;;;;;;1.90;0.63;;;20.90;95.80;;;;;;4952524;29;20471;-73
2023/05/29 07:46:48;;;;;;;2.20;1.10;;;21.50;95.80;;;;;;4953399;29;20466;-71
2023/05/29 07:49:15;;;;;;;0.43;0.43;;;21.50;94.60;;;;;;4953359;29;20473;-70
2023/05/29 07:51:42;;;;;;;0.60;0.60;;;21.30;93.70;;;;;;4953355;28;20517;-71
2023/05/29 07:54:08;;;;;;;0.67;0.50;;;20.60;93.80;;;;;;4952362;29;20473;-71
2023/05/29 07:56:35;;;;;;;5.20;1.03;;;20.30;94.10;;;;;;4952802;29;20483;-71
2023/05/29 07:59:03;;;;;;;9.80;1.37;;;19.60;94.60;;;;;;4952891;29;20949;-71
2023/05/29 08:01:31;;;;;;;1.23;0.80;;;19.20;95.40;;;;;;4953224;28;20591;-71
2023/05/29 08:03:57;;;;;;;5.80;0.97;;;19.00;95.90;;;;;;4952292;29;21176;-73
2023/05/29 08:06:24;;;;;;;0.77;0.60;;;19.30;96.40;;;;;;4953141;29;20469;-71
2023/05/29 08:08:52;;;;;;;2.73;1.40;;;19.40;95.70;;;;;;4952696;29;20473;-71
2023/05/29 08:11:19;;;;;;;0.93;0.90;;;19.40;95.70;;;;;;4952355;29;20569;-70
2023/05/29 08:13:46;;;;;;;1.07;0.73;;;19.30;95.60;;;;;;4952235;29;20473;-71
2023/05/29 08:16:14;;;;;;;1.43;1.33;;;19.30;95.20;;;;;;4952811;29;20527;-70
2023/05/29 08:18:42;;;;;;;0.40;0.40;;;18.90;95.20;;;;;;4952790;28;20502;-71
2023/05/29 08:21:10;;;;;;;1.20;0.63;;;19.00;95.50;;;;;;4952597;29;20834;-71
2023/05/29 08:23:36;;;;;;;1.77;1.17;;;19.00;95.80;;;;;;4951587;29;20472;-71
2023/05/29 08:26:03;;;;;;;1.07;0.50;;;18.90;95.50;;;;;;4952356;29;20523;-71
2023/05/29 08:28:30;;;;;;;2.43;0.80;;;18.70;95.60;;;;;;4952943;28;20533;-71
2023/05/29 08:30:57;;;;;;;2.83;0.90;;;18.70;95.40;;;;;;4952700;29;20487;-70
2023/05/29 08:33:23;;;;;;;0.87;0.87;;;18.30;95.90;;;;;;4951816;29;20468;-71
2023/05/29 08:35:51;;;;;;;1.33;1.23;;;18.30;96.40;;;;;;4946714;29;20459;-70
2023/05/29 08:38:18;;;;;;;2.57;1.20;;;18.30;96.10;;;;;;4952207;28;20463;-71
2023/05/29 08:40:44;;;;;;;0.50;0.50;;;18.50;95.60;;;;;;4952228;28;20940;-72
2023/05/29 08:43:15;;;;;;;0.90;0.77;;;18.50;95.00;;;;;;4952446;28;20975;-72
2023/05/29 08:45:44;;;;;;;0.70;0.40;;;18.30;95.00;;;;;;4952826;28;20833;-72
2023/05/29 08:48:12;;;;;;;0.97;0.87;;;18.10;94.70;;;;;;4952786;28;20473;-73
2023/05/29 08:50:42;;;;;;;0.70;0.70;;;18.10;94.40;;;;;;4953739;28;20576;-72
2023/05/29 08:53:11;;;;;;;1.80;0.60;;;18.10;94.00;;;;;;4957445;28;20452;-72
2023/05/29 08:55:37;;;;;;;1.63;0.70;;;18.20;94.80;;;;;;4962605;28;20458;-72
2023/05/29 08:58:05;;;;;;;1.10;1.00;;;18.20;95.50;;;;;;4967411;28;20465;-72
2023/05/29 09:00:32;;;;;;;1.40;0.80;;;18.20;95.30;;;;;;4968052;28;20501;-72
2023/05/29 09:03:00;;;;;;;3.70;1.03;;;18.00;95.10;;;;;;4959475;28;20508;-72
2023/05/29 09:05:27;;;;;;;1.43;0.70;;;17.80;95.10;;;;;;4955874;28;20469;-73
2023/05/29 09:07:54;;;;;;;2.93;1.10;;;17.90;94.90;;;;;;4956196;28;20587;-72
2023/05/29 09:10:22;;;;;;;1.30;0.70;;;17.70;94.60;;;;;;4956175;28;20464;-72
2023/05/29 09:12:51;;;;;;;0.47;0.47;;;17.40;95.40;;;;;;4955830;28;20480;-72
2023/05/29 09:15:19;;;;;;;2.67;0.73;;;17.50;95.20;;;;;;4955481;28;20498;-72
2023/05/29 09:17:49;;;;;;;4.17;0.97;;;17.40;95.50;;;;;;4956289;28;20465;-72
2023/05/29 09:20:17;;;;;;;1.90;0.60;;;17.10;95.80;;;;;;4956203;28;20567;-72
2023/05/29 09:22:53;;;;;;;1.70;0.47;;;16.90;95.90;;;;;;4956027;28;20559;-72
2023/05/29 09:25:22;;;;;;;2.20;0.83;;;16.90;96.70;;;;;;4953253;29;20460;-72
2023/05/29 09:27:52;;;;;;;1.23;0.40;;;17.00;97.10;;;;;;4955938;28;20519;-72
2023/05/29 09:30:35;;;;;;;3.93;1.97;;;17.20;96.80;;;;;;4955976;28;20547;-72
2023/05/29 09:33:03;;;;;;;1.03;0.70;;;17.30;97.20;;;;;;4955813;29;20499;-72
2023/05/29 09:35:34;;;;;;;1.53;0.90;;;17.40;97.00;;;;;;4955252;28;20469;-72
2023/05/29 09:38:01;;;;;;;0.97;0.70;;;17.40;95.90;;;;;;4955307;28;20464;-72
2023/05/29 09:40:32;;;;;;;1.03;1.03;;;17.20;96.30;;;;;;4955130;29;20544;-72
2023/05/29 09:43:07;;;;;;;5.30;1.13;;;17.10;96.30;;;;;;4955609;28;20508;-71
2023/05/29 09:45:39;;;;;;;1.50;0.60;;;17.00;94.40;;;;;;4954795;29;20536;-72
2023/05/29 09:48:06;;;;;;;3.30;0.57;;;16.90;95.30;;;;;;4955767;28;20500;-73
2023/05/29 09:50:34;;;;;;;3.13;0.73;;;16.90;96.40;;;;;;4955404;28;20488;-72
2023/05/29 09:53:01;;;;;;;4.33;1.10;;;17.10;96.30;;;;;;4954610;29;20977;-72
2023/05/29 09:55:31;;;;;;;0.73;0.73;;;17.10;95.30;;;;;;4954187;29;20464;-72
2023/05/29 09:58:00;;;;;;;0.70;0.67;;;17.10;94.70;;;;;;4955234;29;20464;-73
2023/05/29 10:00:27;;;;;;;4.63;1.13;;;16.90;95.60;;;;;;4954947;29;20475;-72
2023/05/29 10:02:53;;;;;;;1.13;1.00;;;16.90;96.10;;;;;;4953995;28;20835;-72
2023/05/29 10:05:21;;;;;;;1.67;1.30;;;16.80;96.60;;;;;;4954408;28;20468;-73
2023/05/29 10:07:52;;;;;;;11.07;3.60;;;16.70;96.40;;;;;;4955151;29;20464;-73
2023/05/29 10:10:19;;;;;;;2.10;1.13;;;16.80;96.00;;;;;;4954677;29;20472;-73
2023/05/29 10:12:50;;;;;;;5.10;0.60;;;16.80;96.40;;;;;;4955062;28;20909;-72
2023/05/29 10:15:19;;;;;;;0.40;0.37;;;17.00;96.30;;;;;;4954451;29;20946;-71
2023/05/29 10:17:52;;;;;;;1.33;1.33;;;17.10;95.60;;;;;;4954851;28;20832;-72
2023/05/29 10:20:20;;;;;;;1.60;0.60;;;17.10;95.40;;;;;;4955189;29;20499;-72
2023/05/29 10:22:50;;;;;;;1.57;1.30;;;17.30;95.60;;;;;;4954445;29;20484;-73
2023/05/29 10:25:21;;;;;;;0.93;0.70;;;17.30;95.80;;;;;;4951691;29;20484;-73
2023/05/29 10:27:48;;;;;;;0.53;0.53;;;17.30;94.20;;;;;;4954944;29;20453;-72
2023/05/29 10:30:23;;;;;;;0.47;0.47;;;17.40;94.70;;;;;;4954418;28;20468;-72
2023/05/29 10:33:04;;;;;;;1.43;0.90;;;17.50;94.90;;;;;;4955511;28;20547;-72
2023/05/29 10:35:40;;;;;;;7.90;1.07;;;17.70;95.60;;;;;;4954433;29;20512;-71
2023/05/29 10:38:13;;;;;;;1.00;1.00;;;17.70;94.20;;;;;;4954510;29;20456;-73
2023/05/29 10:40:39;;;;;;;0.63;0.63;;;17.50;94.40;;;;;;4955491;28;20605;-73
2023/05/29 10:43:09;;;;;;;2.60;0.80;;;17.50;94.60;;;;;;4954529;28;20492;-72
2023/05/29 10:45:58;;;;;;;2.90;0.67;;;17.60;94.60;;;;;;4954228;29;20587;-73
2023/05/29 10:48:41;;;;;;;1.90;0.70;;;17.70;94.30;;;;;;4948549;29;20472;-73
2023/05/29 10:51:09;;;;;;;2.93;1.37;;;17.80;94.00;;;;;;4954012;29;20477;-73
2023/05/29 10:53:39;;;;;;;4.27;1.37;;;17.90;93.50;;;;;;4953155;29;20908;-74
2023/05/29 10:56:10;;;;;;;1.00;0.57;;;17.90;93.90;;;;;;4953973;29;20464;-73
2023/05/29 10:58:37;;;;;;;1.80;1.00;;;17.80;93.60;;;;;;4953947;29;20961;-73
2023/05/29 11:01:06;;;;;;;0.97;0.50;;;17.70;93.00;;;;;;4953915;29;20539;-73
2023/05/29 11:03:33;;;;;;;0.40;0.40;;;17.90;94.50;;;;;;4953859;29;20488;-73
2023/05/29 11:06:01;;;;;;;7.03;1.20;;;18.10;94.10;;;;;;4954359;29;20464;-73
2023/05/29 11:08:34;;;;;;;6.47;1.10;;;18.20;93.80;;;;;;4953870;28;20992;-73
2023/05/29 11:11:01;;;;;;;1.70;0.57;;;18.00;93.50;;;;;;4953638;29;20962;-73
2023/05/29 11:13:33;;;;;;;0.73;0.73;;;17.90;94.20;;;;;;4953204;28;20826;-73
2023/05/29 11:16:15;;;;;;;0.43;0.43;;;18.00;94.10;;;;;;4953817;29;20469;-73
2023/05/29 11:18:44;;;;;;;0.93;0.50;;;18.10;92.80;;;;;;4953695;29;20453;-73
2023/05/29 11:21:34;;;;;;;2.00;1.07;;;18.10;92.00;;;;;;4953835;29;20958;-74
2023/05/29 11:24:03;;;;;;;2.67;0.73;;;18.10;92.80;;;;;;4950425;29;20501;-72
2023/05/29 11:26:30;;;;;;;2.80;0.70;;;18.00;93.00;;;;;;4953222;28;20639;-73
2023/05/29 11:28:59;;;;;;;3.10;1.20;;;18.10;93.20;;;;;;4953339;29;20480;-73
2023/05/29 11:31:30;;;;;;;1.03;1.03;;;18.30;93.20;;;;;;4953941;29;20896;-71
2023/05/29 11:34:00;;;;;;;0.63;0.63;;;18.40;93.50;;;;;;4952940;28;20461;-71
2023/05/29 11:36:28;;;;;;;1.50;0.80;;;18.40;92.60;;;;;;4953137;29;20465;-72
2023/05/29 11:38:54;;;;;;;0.47;0.47;;;18.40;92.90;;;;;;4952938;28;20553;-71
2023/05/29 11:41:21;;;;;;;4.40;0.63;;;18.30;93.40;;;;;;4952788;28;20854;-72
2023/05/29 11:43:58;;;;;;;1.17;0.70;;;18.50;92.90;;;;;;4952679;28;20499;-72
2023/05/29 11:46:28;;;;;;;2.90;1.10;;;18.60;92.80;;;;;;4953050;28;20465;-72
2023/05/29 11:48:54;;;;;;;3.20;1.33;;;18.60;93.30;;;;;;4953137;28;20820;-72
2023/05/29 11:51:21;;;;;;;3.33;0.80;;;18.70;93.50;;;;;;4952942;29;20517;-73
2023/05/29 11:53:49;;;;;;;0.50;0.50;;;18.80;92.50;;;;;;4952148;29;21105;-72
2023/05/29 11:56:16;;;;;;;0.70;0.60;;;18.90;91.00;;;;;;4952503;29;20472;-73
2023/05/29 11:58:43;;;;;;;5.07;1.63;;;18.90;90.10;;;;;;4952935;28;20953;-72
2023/05/29 12:01:10;;;;;;;2.23;0.57;;;19.00;90.10;;;;;;4952582;28;20872;-73
2023/05/29 12:03:42;;;;;;;0.73;0.73;;;19.00;89.50;;;;;;4952439;29;20850;-72
2023/05/29 12:06:10;;;;;;;1.20;1.20;;;19.00;86.90;;;;;;4952989;28;20972;-72
2023/05/29 12:08:37;;;;;;;0.80;0.80;;;19.00;88.70;;;;;;4952329;29;20491;-72
2023/05/29 12:11:04;;;;;;;0.43;0.43;;;19.10;90.10;;;;;;4952288;29;20488;-72
2023/05/29 12:13:31;;;;;;;1.13;0.30;;;19.20;91.10;;;;;;4952419;29;20468;-73
2023/05/29 12:16:01;;;;;;;1.20;0.53;;;19.20;90.80;;;;;;4952723;29;20480;-73
2023/05/29 12:18:28;;;;;;;0.50;0.50;;;19.30;90.30;;;;;;4952862;29;20556;-72
2023/05/29 12:21:00;;;;;;;1.30;0.80;;;19.30;91.10;;;;;;4953362;28;20492;-72
2023/05/29 12:23:28;;;;;;;0.40;0.40;;;19.30;90.50;;;;;;4948883;29;20490;-72
2023/05/29 12:25:55;;;;;;;0.47;0.47;;;19.30;91.00;;;;;;4951509;28;20832;-71
2023/05/29 12:28:22;;;;;;;0.70;0.70;;;19.30;88.50;;;;;;4952580;29;20475;-71
2023/05/29 12:30:50;;;;;;;0.50;0.50;;;19.40;88.10;;;;;;4952611;28;20488;-72
2023/05/29 12:33:28;;;;;;;1.43;0.70;;;19.30;85.20;;;;;;4951985;29;20473;-72
2023/05/29 12:35:55;;;;;;;2.30;0.70;;;19.10;86.80;;;;;;4952556;28;20523;-72
2023/05/29 12:38:24;;;;;;;2.00;0.50;;;19.20;88.50;;;;;;4952178;29;20472;-73
2023/05/29 12:40:52;;;;;;;3.50;1.30;;;19.30;87.40;;;;;;4952087;29;20508;-72
2023/05/29 12:43:18;;;;;;;1.33;0.83;;;19.30;86.40;;;;;;4951502;28;20555;-72
2023/05/29 12:45:45;;;;;;;0.83;0.83;;;19.20;88.50;;;;;;4952122;28;20479;-72
2023/05/29 12:48:12;;;;;;;3.03;1.27;;;19.20;86.50;;;;;;4952322;28;20472;-71
2023/05/29 12:50:40;;;;;;;3.70;1.23;;;19.30;86.00;;;;;;4952634;29;20496;-72
2023/05/29 12:53:08;;;;;;;1.23;0.53;;;19.30;85.30;;;;;;4952301;29;20465;-71
2023/05/29 12:55:38;;;;;;;0.83;0.73;;;19.30;85.00;;;;;;4951442;29;20563;-71
2023/05/29 12:58:05;;;;;;;2.50;0.67;;;19.50;85.50;;;;;;4952229;29;20890;-72
2023/05/29 13:00:31;;;;;;;0.60;0.60;;;19.50;84.30;;;;;;4952589;29;20480;-72
2023/05/29 13:02:58;;;;;;;1.30;0.60;;;19.60;84.80;;;;;;4953213;29;20484;-72
2023/05/29 13:05:25;;;;;;;2.60;0.70;;;19.60;84.00;;;;;;4952815;28;20472;-73
2023/05/29 13:07:53;;;;;;;0.93;0.90;;;19.70;83.40;;;;;;4952030;29;21192;-72
2023/05/29 13:10:20;;;;;;;0.70;0.70;;;19.80;83.10;;;;;;4952099;28;20530;-73
2023/05/29 13:12:53;;;;;;;0.77;0.70;;;19.70;84.90;;;;;;4952121;28;21151;-71
2023/05/29 13:15:20;;;;;;;2.73;0.67;;;19.80;85.00;;;;;;4951944;28;20485;-71
2023/05/29 13:17:47;;;;;;;5.67;1.10;;;19.80;83.00;;;;;;4952430;28;20523;-72
2023/05/29 13:20:14;;;;;;;0.60;0.60;;;19.80;84.30;;;;;;4952363;28;20480;-71
2023/05/29 13:22:42;;;;;;;1.07;1.07;;;19.70;81.70;;;;;;4951936;28;20822;-72
2023/05/29 13:25:10;;;;;;;1.50;0.60;;;19.90;83.30;;;;;;4951435;28;20465;-72
2023/05/29 13:27:38;;;;;;;1.03;0.93;;;19.90;84.00;;;;;;4933286;29;20482;-71
2023/05/29 13:30:08;;;;;;;1.00;1.00;;;19.90;83.60;;;;;;4933457;29;20473;-71
2023/05/29 13:32:35;;;;;;;2.27;0.43;;;19.90;83.60;;;;;;4933291;29;20573;-71
2023/05/29 13:35:02;;;;;;;5.30;0.83;;;20.00;84.40;;;;;;4932839;29;20473;-72
2023/05/29 13:37:29;;;;;;;4.37;0.67;;;20.20;85.00;;;;;;4934811;29;20699;-73
2023/05/29 13:39:56;;;;;;;0.97;0.53;;;20.20;82.80;;;;;;4936174;29;20465;-73
2023/05/29 13:42:23;;;;;;;0.97;0.97;;;20.20;82.60;;;;;;4936399;29;20572;-71
2023/05/29 13:44:50;;;;;;;0.90;0.90;;;20.30;84.20;;;;;;4935794;29;20476;-71
2023/05/29 13:47:18;;;;;;;2.10;1.37;;;20.30;83.20;;;;;;4936506;29;20473;-71
2023/05/29 13:49:45;;;;;;;2.33;1.60;;;20.20;84.00;;;;;;4936630;29;20493;-72
2023/05/29 13:52:12;;;;;;;2.00;0.63;;;20.10;84.60;;;;;;4936355;29;20477;-72
2023/05/29 13:54:39;;;;;;;1.13;0.90;;;20.20;83.90;;;;;;4935197;29;20488;-72
2023/05/29 13:57:07;;;;;;;1.63;0.90;;;20.20;85.20;;;;;;4936755;29;20481;-71
2023/05/29 13:59:35;;;;;;;2.77;1.10;;;20.10;82.50;;;;;;4936297;29;20529;-72
2023/05/29 14:02:02;;;;;;;0.67;0.60;;;20.10;80.60;;;;;;4936067;29;20501;-71
2023/05/29 14:04:31;;;;;;;9.23;0.80;;;20.20;78.80;;;;;;4935385;29;20536;-73
2023/05/29 14:06:57;;;;;;;1.60;0.97;;;20.30;79.80;;;;;;4935980;29;20469;-72
2023/05/29 14:09:27;;;;;;;3.40;1.00;;;20.20;77.60;;;;;;4935288;29;20489;-72
2023/05/29 14:11:54;;;;;;;0.93;0.93;;;20.20;78.80;;;;;;4935928;29;20592;-72
2023/05/29 14:14:21;;;;;;;0.37;0.37;;;20.20;78.90;;;;;;4935176;29;20472;-73
2023/05/29 14:16:48;;;;;;;0.30;0.30;;;20.20;79.00;;;;;;4936352;29;20474;-73
2023/05/29 14:19:15;;;;;;;0.97;0.60;;;20.40;79.70;;;;;;4936120;29;20813;-73
2023/05/29 14:21:44;;;;;;;0.50;0.50;;;20.50;80.10;;;;;;4935764;29;20863;-72
2023/05/29 14:24:10;;;;;;;0.87;0.40;;;20.60;78.80;;;;;;4942554;29;20571;-74
2023/05/29 14:26:37;;;;;;;5.33;0.57;;;20.60;78.80;;;;;;4955017;29;20464;-73
2023/05/29 14:29:04;;;;;;;1.33;1.03;;;20.70;79.60;;;;;;4954902;29;20472;-73
2023/05/29 14:31:31;;;;;;;4.20;1.43;;;20.90;78.90;;;;;;4955249;29;20491;-72
2023/05/29 14:33:58;;;;;;;1.60;1.50;;;21.00;79.40;;;;;;4954332;29;20922;-72
2023/05/29 14:36:24;;;;;;;3.63;1.40;;;21.00;78.00;;;;;;4955278;28;20472;-72
2023/05/29 14:38:52;;;;;;;6.33;1.33;;;21.00;79.40;;;;;;4954953;29;20479;-72
2023/05/29 14:41:19;;;;;;;1.43;0.90;;;21.10;78.90;;;;;;4954596;29;20507;-72
2023/05/29 14:43:46;;;;;;;1.70;0.60;;;21.10;77.80;;;;;;4954500;28;20516;-72
2023/05/29 14:46:13;;;;;;;1.10;0.70;;;20.90;78.00;;;;;;4954789;29;20465;-72
2023/05/29 14:48:39;;;;;;;1.70;0.70;;;20.90;80.90;;;;;;4953882;28;20465;-73
2023/05/29 14:51:07;;;;;;;0.80;0.80;;;20.70;80.00;;;;;;4954739;28;20591;-73
2023/05/29 14:53:33;;;;;;;0.63;0.63;;;20.80;81.10;;;;;;4953792;29;20474;-72
2023/05/29 14:56:01;;;;;;;0.90;0.90;;;21.00;78.40;;;;;;4954076;28;20536;-72
2023/05/29 14:58:28;;;;;;;0.57;0.57;;;21.10;77.80;;;;;;4954859;29;20531;-71
2023/05/29 15:00:55;;;;;;;0.33;0.33;;;21.30;79.00;;;;;;4954279;29;21010;-72
2023/05/29 15:03:26;;;;;;;1.70;1.43;;;21.50;77.80;;;;;;4953342;28;21233;-72
2023/05/29 15:05:53;;;;;;;0.60;0.50;;;21.60;76.80;;;;;;4954485;28;20957;-72
2023/05/29 15:08:19;;;;;;;1.03;0.87;;;21.70;76.80;;;;;;4954159;29;20469;-72
2023/05/29 15:10:46;;;;;;;0.70;0.60;;;21.40;74.20;;;;;;4954270;29;20485;-73
2023/05/29 15:13:14;;;;;;;0.60;0.60;;;21.60;75.70;;;;;;4953958;28;20822;-73
2023/05/29 15:15:41;;;;;;;2.93;1.10;;;21.70;76.40;;;;;;4954537;29;20836;-73
2023/05/29 15:18:07;;;;;;;0.73;0.73;;;21.80;79.00;;;;;;4954165;29;20476;-72
2023/05/29 15:20:34;;;;;;;3.80;1.37;;;21.80;79.20;;;;;;4954189;29;20489;-71
2023/05/29 15:23:00;;;;;;;0.50;0.50;;;21.80;78.90;;;;;;4953646;29;20472;-72
2023/05/29 15:25:27;;;;;;;0.40;0.40;;;21.50;80.40;;;;;;4953458;29;20831;-72
2023/05/29 15:27:55;;;;;;;1.23;1.23;;;21.50;80.00;;;;;;4953860;29;20465;-72
2023/05/29 15:30:23;;;;;;;4.67;1.10;;;21.50;79.50;;;;;;4953432;28;20469;-72
2023/05/29 15:32:50;;;;;;;1.20;1.10;;;21.60;79.20;;;;;;4954049;28;20475;-72
2023/05/29 15:35:16;;;;;;;0.93;0.70;;;21.60;78.70;;;;;;4953400;28;20532;-72
2023/05/29 15:37:44;;;;;;;1.40;0.80;;;21.60;79.70;;;;;;4952983;29;20481;-72
2023/05/29 15:40:11;;;;;;;0.60;0.50;;;21.60;79.60;;;;;;4953316;29;21127;-72
2023/05/29 15:42:38;;;;;;;3.30;1.07;;;21.30;78.70;;;;;;4953596;29;20484;-71
2023/05/29 15:45:05;;;;;;;0.70;0.70;;;21.30;80.40;;;;;;4952514;28;20489;-64
2023/05/29 15:47:33;;;;;;;5.77;2.10;;;21.30;79.90;;;;;;4944002;28;20623;-66
2023/05/29 15:50:00;;;;;;;1.13;0.60;;;21.50;81.40;;;;;;4949429;29;20475;-66
2023/05/29 15:52:27;;;;;;;1.13;0.63;;;21.60;81.20;;;;;;4953661;29;20571;-66
2023/05/29 15:54:53;;;;;;;0.93;0.63;;;21.70;82.40;;;;;;4950617;29;20473;-66
2023/05/29 15:57:20;;;;;;;0.60;0.60;;;21.70;81.40;;;;;;4953018;28;20460;-66
2023/05/29 15:59:47;;;;;;;0.93;0.73;;;21.80;80.10;;;;;;4957719;28;20966;-66
2023/05/29 16:02:13;;;;;;;1.10;0.70;;;21.70;78.70;;;;;;4955361;29;20500;-66
2023/05/29 16:04:41;;;;;;;2.53;0.70;;;21.70;79.50;;;;;;4955145;29;20489;-67
2023/05/29 16:07:08;;;;;;;1.50;0.63;;;21.60;78.80;;;;;;4953074;29;20491;-66
2023/05/29 16:09:36;;;;;;;1.07;0.57;;;21.50;80.60;;;;;;4960451;29;20469;-66
2023/05/29 16:12:03;;;;;;;0.50;0.50;;;21.50;79.00;;;;;;4957606;28;20488;-67
2023/05/29 16:14:30;;;;;;;1.67;1.00;;;21.60;80.00;;;;;;4948417;28;20596;-66
2023/05/29 16:16:57;;;;;;;0.70;0.70;;;21.60;81.50;;;;;;4949972;29;21436;-66
2023/05/29 16:19:23;;;;;;;0.73;0.73;;;21.60;81.90;;;;;;4951630;29;20568;-66
2023/05/29 16:21:51;;;;;;;1.60;1.30;;;21.60;82.70;;;;;;4951918;29;21005;-66
2023/05/29 16:24:18;;;;;;;1.50;1.23;;;21.60;82.80;;;;;;4941504;29;20910;-67
2023/05/29 16:26:45;;;;;;;2.40;1.90;;;21.50;83.20;;;;;;4945389;29;20984;-66
2023/05/29 16:29:12;;;;;;;3.37;3.27;;;21.50;82.60;;;;;;4944657;29;20504;-67
2023/05/29 16:31:38;;;;;;;2.43;1.50;;;21.50;82.90;;;;;;4952508;29;20563;-67
2023/05/29 16:34:05;;;;;;;1.80;1.70;;;21.50;83.50;;;;;;4946850;29;20823;-67
2023/05/29 16:36:31;;;;;;;0.80;0.80;;;21.50;85.30;;;;;;4951815;29;22531;-67
2023/05/29 16:38:59;;;;;;;2.00;1.90;;;21.50;85.50;;;;;;4949844;29;20515;-67
2023/05/29 16:41:26;;;;;;;0.50;0.50;;;21.40;84.50;;;;;;4949220;29;20495;-66
2023/05/29 16:43:53;;;;;;;2.23;0.63;;;21.30;84.20;;;;;;4946042;29;21030;-66
2023/05/29 16:46:20;;;;;;;5.37;1.20;;;21.30;85.40;;;;;;4951585;29;20476;-66
2023/05/29 16:48:46;;;;;;;1.57;1.20;;;21.40;86.00;;;;;;4946551;29;20457;-67
2023/05/29 16:51:13;;;;;;;3.30;0.87;;;21.30;86.10;;;;;;4951589;29;20518;-66